Time;durP1;ratioP1;P1;durP2;ratioP2;P2;SDS_P1;SDS_P2;PMS_P1;PMS_P2;Temp;Humidity;BMP_temperature;BMP_pressure;BME280_temperature;BME280_humidity;BME280_pressure;Samples;Min_cycle;Max_cycle;Signal;HPM_P1;HPM_P2
2023/05/04 00:07:09;;;;;;;4.78;2.33;;;9.70;1.00;;;;;;20468445;28;20043;-43
2023/05/04 00:17:11;;;;;;;6.68;3.10;;;9.60;1.00;;;;;;20479066;28;20046;-43
2023/05/04 00:27:12;;;;;;;9.30;3.60;;;9.50;1.00;;;;;;20495600;28;20053;-43
2023/05/04 00:37:13;;;;;;;5.53;3.08;;;9.30;1.00;;;;;;20472847;28;20035;-44
2023/05/04 00:47:15;;;;;;;7.72;3.30;;;9.20;1.00;;;;;;20471596;28;20058;-43
2023/05/04 00:57:17;;;;;;;4.80;3.03;;;9.10;1.00;;;;;;20473922;28;20031;-43
2023/05/04 01:07:27;;;;;;;6.60;3.78;;;9.00;1.00;;;;;;20475309;28;20042;-43
2023/05/04 01:17:28;;;;;;;7.85;3.47;;;8.90;1.00;;;;;;20473479;28;20034;-43
2023/05/04 01:27:57;;;;;;;11.10;3.50;;;8.80;1.00;;;;;;20493035;28;20046;-43
2023/05/04 01:37:58;;;;;;;9.27;3.50;;;8.70;1.00;;;;;;20493417;28;20190;-44
2023/05/04 01:47:59;;;;;;;9.45;3.08;;;8.70;1.00;;;;;;20494378;28;20042;-44
2023/05/04 01:58:00;;;;;;;6.68;3.47;;;8.50;1.00;;;;;;20498048;28;20045;-43
2023/05/04 02:08:01;;;;;;;6.90;3.42;;;8.50;1.00;;;;;;20491571;28;20605;-44
2023/05/04 02:18:02;;;;;;;5.45;2.70;;;8.40;1.00;;;;;;20492594;28;20039;-44
2023/05/04 02:28:04;;;;;;;6.30;2.60;;;8.40;1.00;;;;;;20479147;28;20057;-44
2023/05/04 02:38:05;;;;;;;6.32;2.78;;;8.50;1.00;;;;;;20496107;28;20053;-43
2023/05/04 02:48:06;;;;;;;4.57;2.28;;;8.40;1.00;;;;;;20563429;28;20053;-43
2023/05/04 02:58:07;;;;;;;6.10;2.67;;;8.40;1.00;;;;;;20564790;28;20049;-44
2023/05/04 03:08:09;;;;;;;5.10;2.63;;;8.40;1.00;;;;;;20563328;28;20045;-43
2023/05/04 03:18:10;;;;;;;5.95;2.75;;;8.30;1.00;;;;;;20571405;28;20517;-44
2023/05/04 03:28:11;;;;;;;6.53;2.47;;;8.10;1.00;;;;;;20564144;28;20038;-44
2023/05/04 03:38:12;;;;;;;8.63;2.72;;;8.00;1.00;;;;;;20549171;28;20050;-43
2023/05/04 03:48:13;;;;;;;4.53;2.28;;;7.90;1.00;;;;;;20547272;28;20057;-44
2023/05/04 03:58:14;;;;;;;5.85;2.75;;;7.90;1.00;;;;;;20546543;28;20042;-43
2023/05/04 04:08:15;;;;;;;5.28;2.05;;;7.80;1.00;;;;;;20554784;28;20395;-43
2023/05/04 04:18:17;;;;;;;7.30;2.47;;;7.80;1.00;;;;;;20552903;28;20066;-43
2023/05/04 04:28:18;;;;;;;7.63;3.03;;;7.70;1.00;;;;;;20539525;28;20152;-43
2023/05/04 04:38:19;;;;;;;9.25;3.10;;;7.60;1.00;;;;;;20548912;28;20050;-44
2023/05/04 04:48:21;;;;;;;9.00;3.60;;;7.60;1.00;;;;;;20552514;28;20709;-43
2023/05/04 04:58:22;;;;;;;7.28;2.38;;;7.70;1.00;;;;;;20560440;28;20619;-43
2023/05/04 05:08:23;;;;;;;7.40;3.60;;;7.70;1.00;;;;;;20572897;28;20497;-43
2023/05/04 05:18:25;;;;;;;5.35;2.55;;;7.70;1.00;;;;;;20575105;28;20038;-43
2023/05/04 05:28:26;;;;;;;5.30;2.50;;;7.80;1.00;;;;;;20570247;28;20085;-44
2023/05/04 05:38:27;;;;;;;5.40;2.78;;;7.90;1.00;;;;;;20564305;28;20046;-44
2023/05/04 05:48:28;;;;;;;7.40;3.25;;;8.20;1.00;;;;;;20561199;28;20487;-44
2023/05/04 05:58:30;;;;;;;7.65;3.13;;;8.40;1.00;;;;;;20556816;28;20167;-44
2023/05/04 06:08:31;;;;;;;7.35;3.15;;;8.60;1.00;;;;;;20555204;28;20042;-43
2023/05/04 06:18:32;;;;;;;5.63;3.30;;;8.90;1.00;;;;;;20558172;28;20065;-43
2023/05/04 06:28:34;;;;;;;8.00;3.90;;;9.10;1.00;;;;;;20560820;28;20042;-44
2023/05/04 06:38:35;;;;;;;12.30;3.55;;;9.30;1.00;;;;;;20563967;28;20053;-43
2023/05/04 06:48:36;;;;;;;7.10;3.25;;;9.60;1.00;;;;;;20562069;28;20042;-43
2023/05/04 06:58:37;;;;;;;5.22;2.30;;;9.80;1.00;;;;;;20549259;28;20046;-44
2023/05/04 07:08:39;;;;;;;6.75;2.95;;;10.10;1.00;;;;;;20564077;28;20038;-44
2023/05/04 07:18:40;;;;;;;6.07;3.03;;;10.60;1.00;;;;;;20553057;28;20034;-44
2023/05/04 07:28:42;;;;;;;5.78;2.85;;;11.00;1.00;;;;;;20555560;28;20069;-44
2023/05/04 07:38:43;;;;;;;9.00;3.40;;;11.30;1.00;;;;;;20562550;28;20054;-44
2023/05/04 07:48:44;;;;;;;7.65;2.60;;;11.70;1.00;;;;;;20559735;28;20050;-44
2023/05/04 07:58:46;;;;;;;7.65;3.42;;;11.90;1.00;;;;;;20556453;28;20610;-42
2023/05/04 08:08:48;;;;;;;7.22;3.50;;;12.30;1.00;;;;;;20546564;28;20043;-43
2023/05/04 08:18:49;;;;;;;6.60;3.42;;;12.50;1.00;;;;;;20568978;28;20477;-42
2023/05/04 08:28:50;;;;;;;6.30;3.40;;;13.00;1.00;;;;;;20585010;28;20046;-43
2023/05/04 08:38:52;;;;;;;4.30;2.55;;;13.30;1.00;;;;;;20577594;28;20152;-42
2023/05/04 08:48:53;;;;;;;6.20;3.08;;;13.80;1.00;;;;;;20581788;28;20042;-43
2023/05/04 08:59:00;;;;;;;10.63;3.85;;;14.30;1.00;;;;;;20565696;28;20194;-43
2023/05/04 09:09:01;;;;;;;5.78;2.65;;;14.80;1.00;;;;;;20499264;28;20533;-43
2023/05/04 09:19:03;;;;;;;6.25;3.08;;;15.30;1.00;;;;;;20504270;28;20046;-42
2023/05/04 09:29:12;;;;;;;7.80;3.63;;;15.60;1.00;;;;;;20517142;28;20039;-43
2023/05/04 09:39:14;;;;;;;5.18;2.50;;;15.90;1.00;;;;;;20478858;28;20062;-43
2023/05/04 09:49:17;;;;;;;5.55;3.10;;;16.30;1.00;;;;;;20487880;28;20047;-43
2023/05/04 09:59:19;;;;;;;4.55;2.35;;;16.90;1.00;;;;;;20488395;28;20588;-43
2023/05/04 10:09:20;;;;;;;5.85;2.80;;;17.60;1.00;;;;;;20481958;28;20058;-41
2023/05/04 10:19:40;;;;;;;4.93;2.05;;;18.20;1.00;;;;;;20486955;28;20042;-41
2023/05/04 10:29:41;;;;;;;5.88;2.33;;;18.70;1.00;;;;;;20489204;28;20050;-41
2023/05/04 10:39:51;;;;;;;7.80;2.88;;;18.90;1.00;;;;;;20498081;28;20074;-41
2023/05/04 10:50:05;;;;;;;8.93;2.20;;;19.50;1.00;;;;;;20481000;28;20046;-42
2023/05/04 11:00:08;;;;;;;3.80;1.85;;;20.30;1.00;;;;;;20489562;28;20170;-42
2023/05/04 11:10:23;;;;;;;6.60;2.35;;;20.70;1.00;;;;;;20488602;28;20094;-42
2023/05/04 11:20:27;;;;;;;3.25;1.52;;;21.30;1.00;;;;;;20496317;28;20053;-42
2023/05/04 11:30:33;;;;;;;6.38;1.80;;;21.80;1.00;;;;;;20476823;28;20061;-42
2023/05/04 11:40:36;;;;;;;4.57;1.60;;;22.40;1.00;;;;;;20480871;28;20046;-42
2023/05/04 11:50:37;;;;;;;5.47;1.70;;;22.40;1.00;;;;;;20485064;28;20477;-41
2023/05/04 12:00:45;;;;;;;2.88;1.55;;;22.70;1.00;;;;;;20488138;28;20045;-42
2023/05/04 12:10:47;;;;;;;6.75;1.50;;;22.80;1.00;;;;;;20546010;28;20361;-41
2023/05/04 12:20:48;;;;;;;3.47;1.95;;;22.50;1.00;;;;;;20534194;28;20034;-42
2023/05/04 12:30:49;;;;;;;3.58;2.05;;;22.50;1.00;;;;;;20539622;28;20045;-41
2023/05/04 12:40:50;;;;;;;4.70;2.20;;;22.90;1.00;;;;;;20531515;28;20149;-48
2023/05/04 12:50:53;;;;;;;3.53;1.92;;;24.00;1.00;;;;;;20555926;28;20065;-42
2023/05/04 13:00:55;;;;;;;5.40;3.00;;;23.50;1.00;;;;;;20559340;28;20462;-41
2023/05/04 13:10:56;;;;;;;5.13;2.92;;;23.50;1.00;;;;;;20562267;28;20042;-42
2023/05/04 13:20:57;;;;;;;5.70;3.40;;;23.60;1.00;;;;;;20494173;28;20039;-41
2023/05/04 13:30:58;;;;;;;7.15;2.83;;;24.20;1.00;;;;;;20481269;28;20034;-42
2023/05/04 13:40:59;;;;;;;9.70;4.22;;;24.40;1.00;;;;;;20483797;28;20039;-42
2023/05/04 13:51:02;;;;;;;4.70;2.75;;;24.50;1.00;;;;;;20475526;28;20044;-42
2023/05/04 14:01:03;;;;;;;6.22;3.03;;;23.90;1.00;;;;;;20472288;28;20035;-44
2023/05/04 14:11:04;;;;;;;5.53;3.03;;;24.30;1.00;;;;;;20478582;28;20058;-42
2023/05/04 14:21:06;;;;;;;10.63;3.67;;;24.40;1.00;;;;;;20473208;28;20031;-43
2023/05/04 14:31:10;;;;;;;9.13;3.08;;;23.80;1.00;;;;;;20472403;28;20047;-43
2023/05/04 14:41:12;;;;;;;7.95;3.78;;;23.50;1.00;;;;;;20467966;28;20046;-43
2023/05/04 14:51:21;;;;;;;6.97;3.40;;;23.20;1.00;;;;;;20487991;28;20061;-43
2023/05/04 15:01:26;;;;;;;8.25;3.55;;;23.10;1.00;;;;;;20479558;28;20043;-43
2023/05/04 15:11:27;;;;;;;10.10;4.85;;;23.30;1.00;;;;;;20481181;28;20039;-42
2023/05/04 15:21:28;;;;;;;7.95;3.22;;;23.20;1.00;;;;;;20503383;28;20072;-43
2023/05/04 15:31:29;;;;;;;17.30;4.30;;;22.80;1.00;;;;;;20454311;28;20038;-43
2023/05/04 15:41:30;;;;;;;6.28;3.00;;;22.70;1.00;;;;;;20465886;28;20046;-43
2023/05/04 15:51:32;;;;;;;6.60;3.72;;;23.30;1.00;;;;;;20463750;28;20495;-43
2023/05/04 16:01:33;;;;;;;6.05;3.17;;;23.40;1.00;;;;;;20469619;28;20049;-42
2023/05/04 16:11:35;;;;;;;7.60;3.67;;;23.00;1.00;;;;;;20518180;28;20397;-43
2023/05/04 16:21:36;;;;;;;6.03;2.88;;;22.90;1.00;;;;;;20556314;28;20396;-43
2023/05/04 16:31:37;;;;;;;4.95;2.58;;;23.00;1.00;;;;;;20546039;28;20050;-42
2023/05/04 16:41:38;;;;;;;8.68;3.67;;;22.80;1.00;;;;;;20563087;28;20047;-43
2023/05/04 16:51:40;;;;;;;7.00;3.88;;;22.60;1.00;;;;;;20557127;28;20061;-43
2023/05/04 17:01:45;;;;;;;7.22;3.28;;;22.50;1.00;;;;;;20548597;28;20034;-43
2023/05/04 17:11:46;;;;;;;9.07;4.55;;;22.60;1.00;;;;;;20563826;28;20049;-43
2023/05/04 17:21:47;;;;;;;6.70;3.33;;;22.50;1.00;;;;;;20563196;28;21045;-43
2023/05/04 17:31:49;;;;;;;7.78;4.60;;;22.40;1.00;;;;;;20566542;28;20046;-42
2023/05/04 17:41:50;;;;;;;6.13;2.95;;;22.30;1.00;;;;;;20557331;28;20034;-43
2023/05/04 17:51:52;;;;;;;5.32;2.72;;;22.00;1.00;;;;;;20552836;28;20329;-43
2023/05/04 18:01:53;;;;;;;6.05;2.90;;;21.80;1.00;;;;;;20560405;28;20443;-41
2023/05/04 18:11:54;;;;;;;7.35;3.30;;;21.60;1.00;;;;;;20563945;28;20467;-41
2023/05/04 18:21:55;;;;;;;6.63;3.45;;;21.50;1.00;;;;;;20545088;28;20042;-41
2023/05/04 18:31:56;;;;;;;12.63;4.55;;;21.30;1.00;;;;;;20561381;28;20070;-41
2023/05/04 18:41:59;;;;;;;4.70;2.70;;;21.10;1.00;;;;;;20481201;28;20875;-41
2023/05/04 18:52:01;;;;;;;6.32;3.55;;;20.80;1.00;;;;;;20475674;28;20038;-41
2023/05/04 19:02:03;;;;;;;5.30;2.75;;;20.60;1.00;;;;;;20479430;28;20073;-41
2023/05/04 19:12:04;;;;;;;13.63;5.03;;;20.40;1.00;;;;;;20492811;28;20206;-42
2023/05/04 19:22:06;;;;;;;10.65;5.65;;;20.10;1.00;;;;;;20484745;28;20490;-42
2023/05/04 19:32:07;;;;;;;8.63;4.00;;;19.80;1.00;;;;;;20500327;28;20241;-41
2023/05/04 19:42:08;;;;;;;5.63;2.95;;;19.50;1.00;;;;;;20472576;28;20106;-41
2023/05/04 19:52:09;;;;;;;5.43;2.80;;;19.30;1.00;;;;;;20486258;28;20050;-41
2023/05/04 20:02:11;;;;;;;8.35;3.58;;;19.10;1.00;;;;;;20461706;28;20034;-41
2023/05/04 20:12:12;;;;;;;4.25;2.10;;;18.90;1.00;;;;;;20487870;28;20430;-41
2023/05/04 20:22:13;;;;;;;5.47;2.50;;;18.80;1.00;;;;;;20535640;28;20061;-41
2023/05/04 20:32:15;;;;;;;4.60;2.67;;;18.60;1.00;;;;;;20553603;28;20062;-41
2023/05/04 20:42:17;;;;;;;5.78;2.40;;;18.50;1.00;;;;;;20544373;28;20050;-41
2023/05/04 20:52:18;;;;;;;5.32;2.72;;;18.50;1.00;;;;;;20536618;28;20062;-41
2023/05/04 21:02:19;;;;;;;5.45;2.65;;;18.40;1.00;;;;;;20546255;28;20046;-41
2023/05/04 21:12:20;;;;;;;3.70;1.98;;;18.30;1.00;;;;;;20532006;28;20057;-41
2023/05/04 21:22:21;;;;;;;6.50;2.70;;;18.10;1.00;;;;;;20529101;28;20297;-41
2023/05/04 21:32:22;;;;;;;6.63;2.85;;;18.00;1.00;;;;;;20551920;28;20055;-41
2023/05/04 21:42:24;;;;;;;4.97;2.70;;;17.90;1.00;;;;;;20542688;28;20049;-41
2023/05/04 21:52:25;;;;;;;4.45;2.42;;;17.80;1.00;;;;;;20560160;28;20395;-41
2023/05/04 22:02:26;;;;;;;7.00;2.45;;;17.70;1.00;;;;;;20544810;28;20045;-41
2023/05/04 22:12:28;;;;;;;4.43;2.30;;;17.60;1.00;;;;;;20554544;28;21766;-41
2023/05/04 22:22:29;;;;;;;4.30;2.28;;;17.50;1.00;;;;;;20543732;28;20049;-41
2023/05/04 22:32:30;;;;;;;4.78;2.55;;;17.40;1.00;;;;;;20542752;28;20034;-41
2023/05/04 22:42:31;;;;;;;4.53;2.30;;;17.20;1.00;;;;;;20540026;28;20047;-41
2023/05/04 22:52:32;;;;;;;6.72;2.53;;;17.00;1.00;;;;;;20543414;28;20039;-41
2023/05/04 23:02:34;;;;;;;7.95;2.53;;;16.90;1.00;;;;;;20547489;28;20034;-41
2023/05/04 23:12:35;;;;;;;5.60;2.30;;;16.70;1.00;;;;;;20554564;28;20058;-41
2023/05/04 23:22:36;;;;;;;5.30;2.20;;;16.40;1.00;;;;;;20554410;28;20065;-41
2023/05/04 23:32:37;;;;;;;4.45;2.90;;;16.50;1.00;;;;;;20555058;28;20042;-41
2023/05/04 23:42:38;;;;;;;6.47;3.97;;;16.50;1.00;;;;;;20555247;28;20515;-41
2023/05/04 23:52:39;;;;;;;4.47;2.72;;;16.30;1.00;;;;;;20539602;28;20116;-41
